createdAt,value
2022-10-12T00:00:56.440Z,9.70
2022-10-12T00:03:24.638Z,9.60
2022-10-12T00:06:04.208Z,9.50
2022-10-12T00:08:32.754Z,9.50
2022-10-12T00:11:01.169Z,9.50
2022-10-12T00:13:29.573Z,9.40
2022-10-12T00:15:57.720Z,9.40
2022-10-12T00:18:25.965Z,9.30
2022-10-12T00:21:03.868Z,9.30
2022-10-12T00:23:32.547Z,9.30
2022-10-12T00:26:03.763Z,9.30
2022-10-12T00:28:32.112Z,9.30
2022-10-12T00:31:00.217Z,9.30
2022-10-12T00:33:29.341Z,9.30
2022-10-12T00:35:57.413Z,9.30
2022-10-12T00:38:26.866Z,9.30
2022-10-12T00:40:54.939Z,9.30
2022-10-12T00:43:27.987Z,9.30
2022-10-12T00:45:56.344Z,9.30
2022-10-12T00:48:25.202Z,9.30
2022-10-12T00:50:54.061Z,9.30
2022-10-12T00:53:27.072Z,9.30
2022-10-12T00:56:00.919Z,9.30
2022-10-12T00:58:31.434Z,9.40
2022-10-12T01:01:02.411Z,9.40
2022-10-12T01:03:31.984Z,9.40
2022-10-12T01:06:00.521Z,9.30
2022-10-12T01:08:30.162Z,9.40
2022-10-12T01:11:01.617Z,9.30
2022-10-12T01:13:30.730Z,9.30
2022-10-12T01:16:05.436Z,9.30
2022-10-12T01:18:45.031Z,9.30
2022-10-12T01:21:18.107Z,9.40
2022-10-12T01:24:15.397Z,9.40
2022-10-12T01:27:04.629Z,9.30
2022-10-12T01:29:53.949Z,9.40
2022-10-12T01:32:26.100Z,9.30
2022-10-12T01:35:00.044Z,9.40
2022-10-12T01:37:36.679Z,9.30
2022-10-12T01:40:11.722Z,9.30
2022-10-12T01:42:43.114Z,9.30
2022-10-12T01:45:15.406Z,9.30
2022-10-12T01:47:48.310Z,9.30
2022-10-12T01:50:18.745Z,9.30
2022-10-12T01:52:58.263Z,9.30
2022-10-12T01:55:38.254Z,9.20
2022-10-12T01:58:33.593Z,9.20
2022-10-12T02:01:12.356Z,9.20
2022-10-12T02:03:47.602Z,9.20
2022-10-12T02:06:19.827Z,9.20
2022-10-12T02:08:55.809Z,9.20
2022-10-12T02:11:26.907Z,9.20
2022-10-12T02:14:00.631Z,9.30
2022-10-12T02:16:43.207Z,9.30
2022-10-12T02:19:14.582Z,9.30
2022-10-12T02:21:43.529Z,9.30
2022-10-12T02:24:12.674Z,9.30
2022-10-12T02:26:43.165Z,9.30
2022-10-12T02:29:15.293Z,9.30
2022-10-12T02:31:53.085Z,9.20
2022-10-12T02:34:24.785Z,9.20
2022-10-12T02:36:57.928Z,9.30
2022-10-12T02:39:31.125Z,9.20
2022-10-12T02:42:04.989Z,9.20
2022-10-12T02:44:35.401Z,9.20
2022-10-12T02:47:07.666Z,9.20
2022-10-12T02:49:37.478Z,9.20
2022-10-12T02:52:08.132Z,9.20
2022-10-12T02:54:36.910Z,9.20
2022-10-12T02:57:05.148Z,9.20
2022-10-12T02:59:33.254Z,9.10
2022-10-12T03:02:01.280Z,9.10
2022-10-12T03:04:31.064Z,9.10
2022-10-12T03:06:59.104Z,9.10
2022-10-12T03:09:27.145Z,9.10
2022-10-12T03:11:55.236Z,9.00
2022-10-12T03:14:23.593Z,8.90
2022-10-12T03:16:51.673Z,9.00
2022-10-12T03:19:19.920Z,8.90
2022-10-12T03:21:49.361Z,9.00
2022-10-12T03:24:17.418Z,9.00
2022-10-12T03:26:45.493Z,9.00
2022-10-12T03:29:13.590Z,8.90
2022-10-12T03:31:41.613Z,8.90
2022-10-12T03:34:09.851Z,9.00
2022-10-12T03:36:37.948Z,8.90
2022-10-12T03:39:07.361Z,8.90
2022-10-12T03:41:35.667Z,8.90
2022-10-12T03:44:03.709Z,8.90
2022-10-12T03:46:32.077Z,8.80
2022-10-12T03:49:00.170Z,8.80
2022-10-12T03:51:28.350Z,8.80
2022-10-12T03:53:56.410Z,8.80
2022-10-12T03:56:25.900Z,8.80
2022-10-12T03:58:53.970Z,8.80
2022-10-12T04:01:22.038Z,8.80
2022-10-12T04:03:50.124Z,8.80
2022-10-12T04:06:18.261Z,8.80
2022-10-12T04:08:50.602Z,8.80
2022-10-12T04:11:20.357Z,8.80
2022-10-12T04:13:49.949Z,8.80
2022-10-12T04:16:17.909Z,8.80
2022-10-12T04:18:45.949Z,8.80
2022-10-12T04:21:15.744Z,8.80
2022-10-12T04:23:44.260Z,8.80
2022-10-12T04:26:12.450Z,8.80
2022-10-12T04:28:40.591Z,8.80
2022-10-12T04:31:10.078Z,8.90
2022-10-12T04:33:38.134Z,8.80
2022-10-12T04:36:06.501Z,8.80
2022-10-12T04:38:34.574Z,8.80
2022-10-12T04:41:02.709Z,8.80
2022-10-12T04:43:30.998Z,8.80
2022-10-12T04:46:00.272Z,8.80
2022-10-12T04:48:29.679Z,8.80
2022-10-12T04:50:57.810Z,8.80
2022-10-12T04:53:25.989Z,8.80
2022-10-12T04:55:54.069Z,8.80
2022-10-12T04:58:22.172Z,8.80
2022-10-12T05:00:50.668Z,8.80
2022-10-12T05:03:18.721Z,8.80
2022-10-12T05:05:48.557Z,8.80
2022-10-12T05:08:16.841Z,8.80
2022-10-12T05:10:46.337Z,8.80
2022-10-12T05:13:14.237Z,8.80
2022-10-12T05:15:43.496Z,8.80
2022-10-12T05:18:12.011Z,8.80
2022-10-12T05:20:40.329Z,8.80
2022-10-12T05:23:11.886Z,8.80
2022-10-12T05:25:40.130Z,8.80
2022-10-12T05:28:08.596Z,8.80
2022-10-12T05:30:36.704Z,8.80
2022-10-12T05:33:05.045Z,8.80
2022-10-12T05:35:33.154Z,8.70
2022-10-12T05:38:01.189Z,8.80
2022-10-12T05:40:30.627Z,8.70
2022-10-12T05:42:58.669Z,8.80
2022-10-12T05:45:26.737Z,8.80
2022-10-12T05:47:54.778Z,8.70
2022-10-12T05:50:22.813Z,8.80
2022-10-12T05:52:50.843Z,8.80
2022-10-12T05:55:19.066Z,8.80
2022-10-12T05:57:51.968Z,8.80
2022-10-12T06:00:20.674Z,8.80
2022-10-12T06:02:48.828Z,8.90
2022-10-12T06:05:17.086Z,8.80
2022-10-12T06:07:45.412Z,8.90
2022-10-12T06:10:13.489Z,8.90
2022-10-12T06:12:41.609Z,8.90
2022-10-12T06:15:11.997Z,8.90
2022-10-12T06:17:40.052Z,8.90
2022-10-12T06:20:09.291Z,9.00
2022-10-12T06:22:37.562Z,9.00
2022-10-12T06:25:06.749Z,9.10
2022-10-12T06:27:35.042Z,9.20
2022-10-12T06:30:03.351Z,9.20
2022-10-12T06:32:32.896Z,9.20
2022-10-12T06:35:00.752Z,9.30
2022-10-12T06:37:49.068Z,9.30
2022-10-12T06:40:18.366Z,9.30
2022-10-12T06:42:46.760Z,9.40
2022-10-12T06:45:14.921Z,9.40
2022-10-12T06:47:44.363Z,9.50
2022-10-12T06:50:12.929Z,9.50
2022-10-12T06:52:41.237Z,9.50
2022-10-12T06:55:10.453Z,9.50
2022-10-12T06:57:38.565Z,9.50
2022-10-12T07:00:10.066Z,9.50
2022-10-12T07:02:38.432Z,9.50
2022-10-12T07:05:09.322Z,9.60
2022-10-12T07:07:38.672Z,9.60
2022-10-12T07:10:07.499Z,9.70
2022-10-12T07:12:37.118Z,9.70
2022-10-12T07:15:06.475Z,9.70
2022-10-12T07:17:35.166Z,9.80
2022-10-12T07:20:03.317Z,9.80
2022-10-12T07:22:32.779Z,9.90
2022-10-12T07:25:01.229Z,10.00
2022-10-12T07:27:29.296Z,10.10
2022-10-12T07:29:57.372Z,10.20
2022-10-12T07:32:25.424Z,10.40
2022-10-12T07:34:53.502Z,10.50
2022-10-12T07:37:21.561Z,10.60
2022-10-12T07:39:50.988Z,10.70
2022-10-12T07:42:19.703Z,10.80
2022-10-12T07:44:47.935Z,10.90
2022-10-12T07:47:17.648Z,11.00
2022-10-12T07:49:45.713Z,11.10
2022-10-12T07:52:13.812Z,11.10
2022-10-12T07:54:42.328Z,11.30
2022-10-12T07:57:11.732Z,11.40
2022-10-12T07:59:40.129Z,11.50
2022-10-12T08:02:08.466Z,11.60
2022-10-12T08:04:36.606Z,11.90
2022-10-12T08:07:04.733Z,12.10
2022-10-12T08:09:32.806Z,12.10
2022-10-12T08:12:01.050Z,12.30
2022-10-12T08:14:30.500Z,12.40
2022-10-12T08:16:58.591Z,12.60
2022-10-12T08:19:26.660Z,12.70
2022-10-12T08:21:54.673Z,12.80
2022-10-12T08:24:22.886Z,12.90
2022-10-12T08:26:50.934Z,13.00
2022-10-12T08:29:18.940Z,13.30
2022-10-12T08:31:49.420Z,13.50
2022-10-12T08:34:17.740Z,13.40
2022-10-12T08:36:45.972Z,13.40
2022-10-12T08:39:14.475Z,13.40
2022-10-12T08:41:53.309Z,13.50
2022-10-12T08:44:55.881Z,13.70
2022-10-12T08:47:35.527Z,13.80
2022-10-12T08:50:05.951Z,13.90
2022-10-12T08:52:38.826Z,14.10
2022-10-12T08:55:20.418Z,14.30
2022-10-12T08:57:50.024Z,14.40
2022-10-12T09:00:19.441Z,14.40
2022-10-12T09:03:01.671Z,14.50
2022-10-12T09:05:35.817Z,14.70
2022-10-12T09:08:07.958Z,14.80
2022-10-12T09:10:46.210Z,14.70
2022-10-12T09:13:30.456Z,14.70
2022-10-12T09:16:03.177Z,14.90
2022-10-12T09:18:41.088Z,14.90
2022-10-12T09:21:12.613Z,14.90
2022-10-12T09:23:42.238Z,15.00
2022-10-12T09:26:16.777Z,15.20
2022-10-12T09:28:47.366Z,15.30
2022-10-12T09:31:36.583Z,15.50
2022-10-12T09:34:07.910Z,15.40
2022-10-12T09:36:37.941Z,15.40
2022-10-12T09:39:08.268Z,15.40
2022-10-12T09:41:40.514Z,15.40
2022-10-12T09:44:13.077Z,15.40
2022-10-12T09:46:44.707Z,15.50
2022-10-12T09:49:14.144Z,15.60
2022-10-12T09:51:42.143Z,15.60
2022-10-12T09:54:19.351Z,15.70
2022-10-12T09:56:51.275Z,15.80
2022-10-12T09:59:29.131Z,15.90
2022-10-12T10:02:05.794Z,16.60
2022-10-12T10:04:35.874Z,17.20
2022-10-12T10:07:20.206Z,17.50
2022-10-12T10:09:48.798Z,18.00
2022-10-12T10:12:25.117Z,18.20
2022-10-12T10:14:56.609Z,18.30
2022-10-12T10:17:27.894Z,18.10
2022-10-12T10:19:59.465Z,18.30
2022-10-12T10:22:28.106Z,18.80
2022-10-12T10:25:00.513Z,19.00
2022-10-12T10:27:33.457Z,19.20
2022-10-12T10:30:40.568Z,19.30
2022-10-12T10:33:16.987Z,19.30
2022-10-12T10:36:00.888Z,19.60
2022-10-12T10:38:31.809Z,20.00
2022-10-12T10:41:02.993Z,20.30
2022-10-12T10:43:33.083Z,20.30
2022-10-12T10:46:03.456Z,20.10
2022-10-12T10:48:52.854Z,19.80
2022-10-12T10:51:22.489Z,19.50
2022-10-12T10:53:52.902Z,19.30
2022-10-12T10:56:24.846Z,19.00
2022-10-12T10:58:56.301Z,18.90
2022-10-12T11:01:37.187Z,18.80
2022-10-12T11:04:10.122Z,18.70
2022-10-12T11:06:42.732Z,18.90
2022-10-12T11:09:17.034Z,19.00
2022-10-12T11:11:48.895Z,19.30
2022-10-12T11:14:19.723Z,19.80
2022-10-12T11:16:52.670Z,20.30
2022-10-12T11:19:27.626Z,20.20
2022-10-12T11:22:00.567Z,19.90
2022-10-12T11:24:34.521Z,20.60
2022-10-12T11:27:07.326Z,21.40
2022-10-12T11:29:36.837Z,22.10
2022-10-12T11:32:08.771Z,22.10
2022-10-12T11:34:46.900Z,22.50
2022-10-12T11:37:21.091Z,23.00
2022-10-12T11:39:53.716Z,23.20
2022-10-12T11:42:29.674Z,23.20
2022-10-12T11:45:00.313Z,23.20
2022-10-12T11:47:36.245Z,22.90
2022-10-12T11:50:07.306Z,22.20
2022-10-12T11:52:42.005Z,22.00
2022-10-12T11:55:33.014Z,22.00
2022-10-12T11:58:09.048Z,22.20
2022-10-12T12:00:53.470Z,22.40
2022-10-12T12:03:30.777Z,22.00
2022-10-12T12:06:37.797Z,21.70
2022-10-12T12:09:22.032Z,21.30
2022-10-12T12:11:50.133Z,20.90
2022-10-12T12:14:46.758Z,21.00
2022-10-12T12:17:26.948Z,20.90
2022-10-12T12:20:00.733Z,20.90
2022-10-12T12:22:31.681Z,20.70
2022-10-12T12:25:16.629Z,20.70
2022-10-12T12:27:47.724Z,20.80
2022-10-12T12:30:34.784Z,21.50
2022-10-12T12:33:05.790Z,22.60
2022-10-12T12:35:39.502Z,23.20
2022-10-12T12:38:21.544Z,23.30
2022-10-12T12:41:04.641Z,23.80
2022-10-12T12:44:01.661Z,24.70
2022-10-12T12:47:44.604Z,25.10
2022-10-12T12:50:02.146Z,24.80
2022-10-12T12:52:33.386Z,24.50
2022-10-12T12:55:34.266Z,23.80
2022-10-12T12:58:24.737Z,22.80
2022-10-12T13:01:05.905Z,22.00
2022-10-12T13:04:03.635Z,21.50
2022-10-12T13:07:05.537Z,21.10
2022-10-12T13:09:53.894Z,20.70
2022-10-12T13:12:34.562Z,20.40
2022-10-12T13:15:25.799Z,20.20
2022-10-12T13:18:34.502Z,20.70
2022-10-12T13:21:07.962Z,22.20
2022-10-12T13:23:36.342Z,22.60
2022-10-12T13:26:08.184Z,22.40
2022-10-12T13:28:40.810Z,21.80
2022-10-12T13:31:17.717Z,21.20
2022-10-12T13:33:50.984Z,20.70
2022-10-12T13:36:24.493Z,20.30
2022-10-12T13:38:56.897Z,20.10
2022-10-12T13:41:26.550Z,19.80
2022-10-12T13:43:56.678Z,19.60
2022-10-12T13:46:41.992Z,19.50
2022-10-12T13:49:19.728Z,19.30
2022-10-12T13:51:50.359Z,19.20
2022-10-12T13:54:21.730Z,19.90
2022-10-12T13:56:52.424Z,20.50
2022-10-12T13:59:24.086Z,20.70
2022-10-12T14:01:56.178Z,20.30
2022-10-12T14:04:28.033Z,20.00
2022-10-12T14:07:02.982Z,19.70
2022-10-12T14:09:41.294Z,19.40
2022-10-12T14:12:10.699Z,19.20
2022-10-12T14:14:39.772Z,19.00
2022-10-12T14:17:14.736Z,18.70
2022-10-12T14:19:48.076Z,18.60
2022-10-12T14:22:22.480Z,18.40
2022-10-12T14:24:51.447Z,18.30
2022-10-12T14:27:25.074Z,18.20
2022-10-12T14:29:57.713Z,18.00
2022-10-12T14:32:42.465Z,17.80
2022-10-12T14:35:22.973Z,17.70
2022-10-12T14:37:52.836Z,17.60
2022-10-12T14:40:36.353Z,17.50
2022-10-12T14:43:09.442Z,17.40
2022-10-12T14:45:37.834Z,17.20
2022-10-12T14:48:14.765Z,17.10
2022-10-12T14:50:44.843Z,17.00
2022-10-12T14:53:14.705Z,16.80
2022-10-12T14:55:43.535Z,16.70
2022-10-12T14:58:16.333Z,16.70
2022-10-12T15:00:45.360Z,16.60
2022-10-12T15:03:14.917Z,16.40
2022-10-12T15:05:42.777Z,16.40
2022-10-12T15:08:10.865Z,16.30
2022-10-12T15:10:39.335Z,16.20
2022-10-12T15:13:07.385Z,16.10
2022-10-12T15:15:40.692Z,16.00
2022-10-12T15:18:09.094Z,15.90
2022-10-12T15:20:39.504Z,15.80
2022-10-12T15:23:08.176Z,15.70
2022-10-12T15:25:44.238Z,15.60
2022-10-12T15:28:12.474Z,15.50
2022-10-12T15:30:57.998Z,15.40
2022-10-12T15:33:28.846Z,15.30
2022-10-12T15:35:58.495Z,15.20
2022-10-12T15:38:26.576Z,15.10
2022-10-12T15:40:57.951Z,15.00
2022-10-12T15:43:26.478Z,14.90
2022-10-12T15:45:56.338Z,14.80
2022-10-12T15:48:24.430Z,14.80
2022-10-12T15:50:52.600Z,14.70
2022-10-12T15:53:24.585Z,14.60
2022-10-12T15:55:52.914Z,14.50
2022-10-12T15:58:21.348Z,14.40
2022-10-12T16:00:49.620Z,14.40
2022-10-12T16:03:25.286Z,14.30
2022-10-12T16:05:54.795Z,14.20
2022-10-12T16:08:24.479Z,14.10
2022-10-12T16:10:52.588Z,14.00
2022-10-12T16:13:20.791Z,13.90
2022-10-12T16:15:48.912Z,13.80
2022-10-12T16:18:17.792Z,13.60
2022-10-12T16:20:51.095Z,13.50
2022-10-12T16:23:26.542Z,13.40
2022-10-12T16:25:55.038Z,13.20
2022-10-12T16:28:26.170Z,13.20
2022-10-12T16:30:54.721Z,13.10
2022-10-12T16:33:22.880Z,12.90
2022-10-12T16:35:50.948Z,12.90
2022-10-12T16:38:20.293Z,12.80
2022-10-12T16:40:50.198Z,12.80
2022-10-12T16:43:19.336Z,12.70
2022-10-12T16:45:55.537Z,12.60
2022-10-12T16:48:23.579Z,12.50
2022-10-12T16:50:51.607Z,12.50
2022-10-12T16:53:19.656Z,12.40
2022-10-12T16:55:49.840Z,12.40
2022-10-12T16:58:17.899Z,12.30
2022-10-12T17:00:46.078Z,12.20
2022-10-12T17:03:14.421Z,12.20
2022-10-12T17:05:43.246Z,12.10
2022-10-12T17:08:15.380Z,12.00
2022-10-12T17:10:45.181Z,12.00
2022-10-12T17:13:14.626Z,11.90
2022-10-12T17:15:42.958Z,11.90
2022-10-12T17:18:11.010Z,11.80
2022-10-12T17:20:39.132Z,11.70
2022-10-12T17:23:07.216Z,11.70
2022-10-12T17:25:35.285Z,11.60
2022-10-12T17:28:03.443Z,11.60
2022-10-12T17:30:33.287Z,11.50
2022-10-12T17:33:01.334Z,11.40
2022-10-12T17:35:29.398Z,11.30
2022-10-12T17:37:57.424Z,11.20
2022-10-12T17:40:25.451Z,11.20
2022-10-12T17:42:53.507Z,11.20
2022-10-12T17:45:21.586Z,11.10
2022-10-12T17:47:51.034Z,11.00
2022-10-12T17:50:19.281Z,10.90
2022-10-12T17:52:47.275Z,10.80
2022-10-12T17:55:29.954Z,10.70
2022-10-12T17:58:03.706Z,10.60
2022-10-12T18:00:31.936Z,10.50
2022-10-12T18:03:01.349Z,10.40
2022-10-12T18:05:29.424Z,10.30
2022-10-12T18:07:59.105Z,10.20
2022-10-12T18:10:28.587Z,10.20
2022-10-12T18:12:57.017Z,10.10
2022-10-12T18:15:25.124Z,10.00
2022-10-12T18:17:54.561Z,10.00
2022-10-12T18:20:24.131Z,9.90
2022-10-12T18:22:52.206Z,9.90
2022-10-12T18:25:20.238Z,9.90
2022-10-12T18:27:50.330Z,9.80
2022-10-12T18:30:18.641Z,9.80
2022-10-12T18:32:46.682Z,9.70
2022-10-12T18:35:15.085Z,9.70
2022-10-12T18:37:44.760Z,9.60
2022-10-12T18:40:13.318Z,9.50
2022-10-12T18:42:41.430Z,9.50
2022-10-12T18:45:10.200Z,9.40
2022-10-12T18:47:38.306Z,9.40
2022-10-12T18:50:07.623Z,9.30
2022-10-12T18:52:35.689Z,9.20
2022-10-12T18:55:05.605Z,9.10
2022-10-12T18:57:39.007Z,9.10
2022-10-12T19:00:10.336Z,9.00
2022-10-12T19:02:38.425Z,8.90
2022-10-12T19:05:07.232Z,8.90
2022-10-12T19:07:36.309Z,8.80
2022-10-12T19:10:08.739Z,8.70
2022-10-12T19:12:37.007Z,8.60
2022-10-12T19:15:06.265Z,8.60
2022-10-12T19:17:34.370Z,8.50
2022-10-12T19:20:03.315Z,8.40
2022-10-12T19:22:31.423Z,8.40
2022-10-12T19:24:59.534Z,8.30
2022-10-12T19:27:29.026Z,8.30
2022-10-12T19:29:56.950Z,8.20
2022-10-12T19:32:25.001Z,8.10
2022-10-12T19:34:53.282Z,8.10
2022-10-12T19:37:21.334Z,8.00
2022-10-12T19:39:49.650Z,8.00
2022-10-12T19:42:17.964Z,7.90
2022-10-12T19:44:47.682Z,7.80
2022-10-12T19:47:16.106Z,7.80
2022-10-12T19:49:45.427Z,7.70
2022-10-12T19:52:13.736Z,7.70
2022-10-12T19:54:41.829Z,7.70
2022-10-12T19:57:09.898Z,7.70
2022-10-12T19:59:37.986Z,7.60
2022-10-12T20:02:09.368Z,7.60
2022-10-12T20:04:37.813Z,7.60
2022-10-12T20:07:05.837Z,7.60
2022-10-12T20:09:34.058Z,7.60
2022-10-12T20:12:02.123Z,7.50
2022-10-12T20:14:30.777Z,7.50
2022-10-12T20:16:58.855Z,7.50
2022-10-12T20:19:28.504Z,7.40
2022-10-12T20:21:56.610Z,7.40
2022-10-12T20:24:24.681Z,7.40
2022-10-12T20:26:52.933Z,7.40
2022-10-12T20:29:20.975Z,7.40
2022-10-12T20:31:49.065Z,7.30
2022-10-12T20:34:17.101Z,7.30
2022-10-12T20:36:46.725Z,7.20
2022-10-12T20:39:14.926Z,7.20
2022-10-12T20:41:43.177Z,7.20
2022-10-12T20:44:11.528Z,7.10
2022-10-12T20:46:39.629Z,7.10
2022-10-12T20:49:07.687Z,7.10
2022-10-12T20:51:39.925Z,7.10
2022-10-12T20:54:14.675Z,7.10
2022-10-12T20:56:44.057Z,7.00
2022-10-12T20:59:12.526Z,7.00
2022-10-12T21:01:40.629Z,7.00
2022-10-12T21:04:10.064Z,7.00
2022-10-12T21:06:39.143Z,6.90
2022-10-12T21:09:09.730Z,6.90
2022-10-12T21:11:38.365Z,6.80
2022-10-12T21:14:06.518Z,6.80
2022-10-12T21:16:34.606Z,6.80
2022-10-12T21:19:02.652Z,6.80
2022-10-12T21:21:30.724Z,6.70
2022-10-12T21:24:00.569Z,6.70
2022-10-12T21:26:31.684Z,6.60
2022-10-12T21:29:00.182Z,6.60
2022-10-12T21:31:32.300Z,6.50
2022-10-12T21:34:01.936Z,6.50
2022-10-12T21:36:31.114Z,6.50
2022-10-12T21:38:59.377Z,6.40
2022-10-12T21:41:30.350Z,6.40
2022-10-12T21:43:59.005Z,6.40
2022-10-12T21:46:29.301Z,6.30
2022-10-12T21:48:58.912Z,6.20
2022-10-12T21:51:27.434Z,6.20
2022-10-12T21:53:55.796Z,6.20
2022-10-12T21:56:25.723Z,6.10
2022-10-12T21:58:57.991Z,6.10
2022-10-12T22:01:27.714Z,6.00
2022-10-12T22:03:56.982Z,6.00
2022-10-12T22:06:26.771Z,5.90
2022-10-12T22:08:56.757Z,5.90
2022-10-12T22:11:27.312Z,5.90
2022-10-12T22:13:59.122Z,5.90
2022-10-12T22:16:29.078Z,5.90
2022-10-12T22:18:59.437Z,5.80
2022-10-12T22:21:28.395Z,5.80
2022-10-12T22:23:56.483Z,5.80
2022-10-12T22:26:25.250Z,5.80
2022-10-12T22:28:53.414Z,5.70
2022-10-12T22:31:24.998Z,5.80
2022-10-12T22:33:53.703Z,5.70
2022-10-12T22:36:21.824Z,5.70
2022-10-12T22:38:49.882Z,5.60
2022-10-12T22:41:19.800Z,5.60
2022-10-12T22:43:48.810Z,5.60
2022-10-12T22:46:17.265Z,5.60
2022-10-12T22:48:47.048Z,5.60
2022-10-12T22:51:17.941Z,5.50
2022-10-12T22:53:46.012Z,5.50
2022-10-12T22:56:16.646Z,5.50
2022-10-12T22:58:45.632Z,5.50
2022-10-12T23:01:18.570Z,5.40
2022-10-12T23:03:47.999Z,5.40
2022-10-12T23:06:17.873Z,5.40
2022-10-12T23:08:46.418Z,5.30
2022-10-12T23:11:16.653Z,5.40
2022-10-12T23:13:45.142Z,5.30
2022-10-12T23:16:14.725Z,5.20
2022-10-12T23:18:43.015Z,5.20
2022-10-12T23:21:14.521Z,5.20
2022-10-12T23:23:43.893Z,5.20
2022-10-12T23:26:14.251Z,5.20
2022-10-12T23:28:43.076Z,5.10
2022-10-12T23:31:13.210Z,5.10
2022-10-12T23:33:41.903Z,5.10
2022-10-12T23:36:13.785Z,5.00
2022-10-12T23:38:43.621Z,5.00
2022-10-12T23:41:13.194Z,5.00
2022-10-12T23:43:41.470Z,5.00
2022-10-12T23:46:11.237Z,5.00
2022-10-12T23:48:39.823Z,5.00
2022-10-12T23:51:08.458Z,5.00
2022-10-12T23:53:38.357Z,5.00
2022-10-12T23:56:07.457Z,5.00
2022-10-12T23:58:35.884Z,5.00
